createdAt,value
2019-03-08T00:01:37.545Z,83.10
2019-03-08T00:04:08.124Z,83.40
2019-03-08T00:06:38.707Z,83.60
2019-03-08T00:09:09.459Z,83.90
2019-03-08T00:11:40.322Z,84.50
2019-03-08T00:14:11.002Z,84.70
2019-03-08T00:16:41.680Z,85.00
2019-03-08T00:19:12.147Z,85.40
2019-03-08T00:21:43.610Z,85.90
2019-03-08T00:24:14.341Z,86.00
2019-03-08T00:26:45.902Z,86.30
2019-03-08T00:29:16.595Z,86.20
2019-03-08T00:31:47.250Z,86.10
2019-03-08T00:34:17.790Z,86.10
2019-03-08T00:36:58.074Z,86.30
2019-03-08T00:39:28.629Z,86.50
2019-03-08T00:41:59.299Z,86.70
2019-03-08T00:44:29.830Z,87.30
2019-03-08T00:47:00.373Z,88.90
2019-03-08T00:49:30.903Z,89.60
2019-03-08T00:52:01.531Z,89.90
2019-03-08T00:54:32.301Z,90.00
2019-03-08T00:57:02.793Z,90.10
2019-03-08T00:59:33.632Z,90.30
2019-03-08T01:02:04.421Z,90.50
2019-03-08T01:04:35.092Z,90.60
2019-03-08T01:07:06.037Z,90.60
2019-03-08T01:09:36.673Z,90.60
2019-03-08T01:12:07.389Z,90.70
2019-03-08T01:14:37.896Z,90.70
2019-03-08T01:17:08.319Z,90.80
2019-03-08T01:19:39.176Z,91.10
2019-03-08T01:22:09.919Z,91.20
2019-03-08T01:24:41.921Z,91.20
2019-03-08T01:27:12.506Z,91.10
2019-03-08T01:29:43.288Z,91.00
2019-03-08T01:32:14.562Z,91.10
2019-03-08T01:34:45.222Z,91.40
2019-03-08T01:37:15.881Z,91.50
2019-03-08T01:39:46.376Z,91.60
2019-03-08T01:42:16.910Z,91.90
2019-03-08T01:44:50.723Z,91.90
2019-03-08T01:47:22.368Z,92.00
2019-03-08T01:49:52.909Z,92.20
2019-03-08T01:52:23.498Z,92.40
2019-03-08T01:54:54.038Z,92.60
2019-03-08T01:57:24.704Z,92.50
2019-03-08T01:59:55.217Z,92.60
2019-03-08T02:02:25.721Z,92.50
2019-03-08T02:04:56.176Z,92.60
2019-03-08T02:07:26.676Z,92.80
2019-03-08T02:09:57.244Z,93.00
2019-03-08T02:12:27.972Z,92.90
2019-03-08T02:14:58.502Z,92.90
2019-03-08T02:17:29.141Z,92.70
2019-03-08T02:19:59.772Z,92.50
2019-03-08T02:22:30.761Z,92.50
2019-03-08T02:25:01.346Z,92.30
2019-03-08T02:27:32.178Z,92.20
2019-03-08T02:30:02.966Z,92.30
2019-03-08T02:32:33.581Z,92.50
2019-03-08T02:35:04.673Z,92.80
2019-03-08T02:37:35.212Z,92.90
2019-03-08T02:40:27.243Z,93.00
2019-03-08T02:42:57.837Z,93.20
2019-03-08T02:45:28.611Z,93.40
2019-03-08T02:47:59.230Z,93.80
2019-03-08T02:50:29.870Z,94.00
2019-03-08T02:53:00.504Z,94.40
2019-03-08T02:55:31.022Z,94.60
2019-03-08T02:58:02.894Z,95.10
2019-03-08T03:00:39.860Z,95.10
2019-03-08T03:03:10.391Z,95.30
2019-03-08T03:05:41.130Z,95.50
2019-03-08T03:08:11.735Z,95.60
2019-03-08T03:10:42.383Z,95.40
2019-03-08T03:13:12.863Z,95.50
2019-03-08T03:15:43.650Z,95.80
2019-03-08T03:18:15.313Z,96.00
2019-03-08T03:20:45.835Z,96.20
2019-03-08T03:23:16.322Z,96.00
2019-03-08T03:25:46.889Z,95.90
2019-03-08T03:28:17.488Z,96.00
2019-03-08T03:30:48.024Z,96.10
2019-03-08T03:33:18.649Z,96.10
2019-03-08T03:35:49.063Z,96.20
2019-03-08T03:38:19.639Z,96.10
2019-03-08T03:40:50.283Z,96.20
2019-03-08T03:43:20.853Z,96.40
2019-03-08T03:45:51.512Z,96.60
2019-03-08T03:48:22.126Z,96.70
2019-03-08T03:50:53.221Z,96.90
2019-03-08T03:53:23.741Z,96.90
2019-03-08T03:55:54.371Z,97.00
2019-03-08T03:58:25.312Z,97.30
2019-03-08T04:00:56.105Z,97.10
2019-03-08T04:03:26.711Z,97.60
2019-03-08T04:05:57.402Z,97.40
2019-03-08T04:08:28.042Z,97.30
2019-03-08T04:10:58.787Z,97.40
2019-03-08T04:13:29.353Z,97.40
2019-03-08T04:16:00.028Z,98.00
2019-03-08T04:18:30.524Z,97.70
2019-03-08T04:21:01.101Z,97.70
2019-03-08T04:23:32.754Z,97.70
2019-03-08T04:26:03.303Z,97.40
2019-03-08T04:28:33.813Z,97.40
2019-03-08T04:31:04.434Z,97.30
2019-03-08T04:33:35.173Z,97.20
2019-03-08T04:36:06.003Z,97.10
2019-03-08T04:38:37.661Z,97.10
2019-03-08T04:41:08.205Z,96.90
2019-03-08T04:43:38.984Z,97.00
2019-03-08T04:46:09.785Z,96.80
2019-03-08T04:48:40.692Z,96.90
2019-03-08T04:51:11.208Z,96.80
2019-03-08T04:53:41.693Z,96.70
2019-03-08T04:56:12.181Z,96.70
2019-03-08T04:58:42.819Z,96.80
2019-03-08T05:01:13.545Z,96.80
2019-03-08T05:03:44.084Z,96.80
2019-03-08T05:06:14.714Z,96.70
2019-03-08T05:08:45.883Z,96.50
2019-03-08T05:11:16.796Z,96.60
2019-03-08T05:13:47.518Z,96.60
2019-03-08T05:16:18.163Z,96.50
2019-03-08T05:18:48.810Z,96.40
2019-03-08T05:21:19.415Z,96.60
2019-03-08T05:23:50.362Z,96.20
2019-03-08T05:26:20.895Z,96.10
2019-03-08T05:28:51.624Z,96.00
2019-03-08T05:31:22.111Z,96.20
2019-03-08T05:33:52.893Z,96.20
2019-03-08T05:36:23.824Z,96.10
2019-03-08T05:38:54.399Z,95.90
2019-03-08T05:41:25.083Z,95.60
2019-03-08T05:43:55.726Z,95.50
2019-03-08T05:46:26.284Z,95.30
2019-03-08T05:48:56.973Z,95.30
2019-03-08T05:51:27.622Z,95.30
2019-03-08T05:53:58.234Z,95.10
2019-03-08T05:56:28.869Z,95.00
2019-03-08T05:58:59.355Z,94.90
2019-03-08T06:01:29.820Z,94.70
2019-03-08T06:04:00.432Z,94.50
2019-03-08T06:06:31.188Z,94.30
2019-03-08T06:09:02.084Z,94.30
2019-03-08T06:11:34.525Z,94.00
2019-03-08T06:14:05.243Z,93.70
2019-03-08T06:16:35.753Z,93.50
2019-03-08T06:19:07.523Z,93.20
2019-03-08T06:21:38.047Z,93.10
2019-03-08T06:24:08.578Z,92.90
2019-03-08T06:26:39.211Z,92.70
2019-03-08T06:29:09.666Z,92.40
2019-03-08T06:31:40.274Z,92.20
2019-03-08T06:34:13.048Z,92.00
2019-03-08T06:36:43.793Z,91.80
2019-03-08T06:39:14.319Z,91.40
2019-03-08T06:41:44.940Z,90.90
2019-03-08T06:44:15.676Z,90.60
2019-03-08T06:46:46.291Z,90.90
2019-03-08T06:49:16.731Z,90.10
2019-03-08T06:51:47.157Z,89.90
2019-03-08T06:54:18.201Z,88.60
2019-03-08T06:56:50.763Z,88.30
2019-03-08T06:59:27.808Z,88.00
2019-03-08T07:01:58.415Z,87.70
2019-03-08T07:04:30.087Z,87.30
2019-03-08T07:07:00.677Z,87.10
2019-03-08T07:09:31.342Z,86.30
2019-03-08T07:12:01.833Z,85.50
2019-03-08T07:14:32.572Z,85.30
2019-03-08T07:17:03.087Z,85.00
2019-03-08T07:19:40.735Z,84.60
2019-03-08T07:22:14.500Z,84.90
2019-03-08T07:24:54.037Z,84.20
2019-03-08T07:27:43.701Z,83.50
2019-03-08T07:30:23.363Z,83.20
2019-03-08T07:33:12.933Z,82.90
2019-03-08T07:36:03.924Z,83.10
2019-03-08T07:38:51.157Z,82.70
2019-03-08T07:41:38.047Z,81.50
2019-03-08T07:44:27.697Z,81.70
2019-03-08T07:47:17.332Z,80.20
2019-03-08T07:50:09.263Z,80.10
2019-03-08T07:52:58.741Z,79.40
2019-03-08T07:55:43.243Z,79.30
2019-03-08T07:58:32.982Z,78.90
2019-03-08T08:01:12.808Z,78.90
2019-03-08T08:03:52.374Z,77.00
2019-03-08T08:06:31.111Z,77.30
2019-03-08T08:09:09.049Z,77.00
2019-03-08T08:11:49.747Z,75.60
2019-03-08T08:14:26.627Z,75.80
2019-03-08T08:17:07.207Z,76.10
2019-03-08T08:19:56.863Z,74.10
2019-03-08T08:22:46.446Z,74.10
2019-03-08T08:25:36.987Z,74.20
2019-03-08T08:28:21.406Z,72.50
2019-03-08T08:31:10.983Z,71.40
2019-03-08T08:34:00.553Z,71.10
2019-03-08T08:36:47.378Z,71.40
2019-03-08T08:39:29.135Z,69.50
2019-03-08T08:42:09.102Z,69.80
2019-03-08T08:44:48.457Z,68.60
2019-03-08T08:47:33.802Z,68.10
2019-03-08T08:50:23.593Z,66.30
2019-03-08T08:53:10.833Z,64.50
2019-03-08T08:55:49.349Z,65.30
2019-03-08T08:58:38.997Z,65.20
2019-03-08T09:01:28.518Z,65.30
2019-03-08T09:04:18.275Z,64.70
2019-03-08T09:07:05.312Z,64.80
2019-03-08T09:09:43.539Z,63.50
2019-03-08T09:12:34.213Z,62.70
2019-03-08T09:15:17.697Z,62.20
2019-03-08T09:19:51.874Z,60.60
2019-03-08T09:22:41.364Z,59.60
2019-03-08T09:25:33.358Z,58.60
2019-03-08T09:28:23.062Z,57.60
2019-03-08T09:31:05.178Z,57.50
2019-03-08T09:33:55.133Z,57.90
2019-03-08T09:36:44.679Z,56.80
2019-03-08T09:39:34.345Z,55.60
2019-03-08T09:42:11.260Z,57.60
2019-03-08T09:45:01.134Z,57.60
2019-03-08T09:47:50.767Z,56.20
2019-03-08T09:50:26.914Z,55.60
2019-03-08T09:53:07.078Z,56.00
2019-03-08T09:55:43.874Z,54.70
2019-03-08T09:58:33.493Z,54.40
2019-03-08T10:01:16.538Z,54.50
2019-03-08T10:04:04.754Z,53.00
2019-03-08T10:06:52.168Z,53.10
2019-03-08T10:09:41.744Z,52.10
2019-03-08T10:12:19.376Z,51.90
2019-03-08T10:14:57.207Z,51.10
2019-03-08T10:17:37.633Z,51.60
2019-03-08T10:20:23.574Z,50.60
2019-03-08T10:23:19.701Z,50.10
2019-03-08T10:26:04.483Z,50.70
2019-03-08T10:28:54.263Z,51.60
2019-03-08T10:31:33.057Z,50.90
2019-03-08T10:34:24.407Z,51.70
2019-03-08T10:37:06.733Z,51.40
2019-03-08T10:39:56.337Z,51.80
2019-03-08T10:42:45.914Z,50.60
2019-03-08T10:45:27.228Z,51.80
2019-03-08T10:48:16.933Z,50.40
2019-03-08T10:50:51.622Z,50.30
2019-03-08T10:53:30.860Z,49.30
2019-03-08T10:56:08.679Z,47.10
2019-03-08T10:58:55.214Z,46.70
2019-03-08T11:01:34.713Z,45.30
2019-03-08T11:04:19.658Z,46.10
2019-03-08T11:06:58.077Z,46.80
2019-03-08T11:09:43.659Z,47.60
2019-03-08T11:12:34.111Z,48.60
2019-03-08T11:15:24.938Z,49.40
2019-03-08T11:18:11.602Z,50.50
2019-03-08T11:20:55.053Z,51.20
2019-03-08T11:23:33.166Z,51.10
2019-03-08T11:26:22.929Z,51.60
2019-03-08T11:29:12.421Z,51.80
2019-03-08T11:31:48.956Z,52.00
2019-03-08T11:34:32.156Z,51.60
2019-03-08T11:37:09.302Z,51.60
2019-03-08T11:39:58.840Z,51.30
2019-03-08T11:42:39.523Z,51.40
2019-03-08T11:45:23.693Z,50.40
2019-03-08T11:48:13.470Z,51.10
2019-03-08T11:50:57.852Z,51.10
2019-03-08T11:53:56.042Z,50.40
2019-03-08T11:56:40.753Z,49.90
2019-03-08T11:59:23.536Z,49.70
2019-03-08T12:02:11.506Z,49.70
2019-03-08T12:04:53.183Z,49.40
2019-03-08T12:07:42.652Z,49.40
2019-03-08T12:10:21.675Z,50.00
2019-03-08T12:13:02.391Z,50.40
2019-03-08T12:15:52.023Z,50.30
2019-03-08T12:18:41.538Z,50.50
2019-03-08T12:21:31.018Z,51.30
2019-03-08T12:24:20.539Z,51.70
2019-03-08T12:27:00.734Z,52.30
2019-03-08T12:29:50.140Z,52.50
2019-03-08T12:32:39.645Z,52.70
2019-03-08T12:35:29.786Z,52.80
2019-03-08T12:38:19.192Z,53.10
2019-03-08T12:40:59.508Z,53.50
2019-03-08T12:43:48.983Z,53.50
2019-03-08T12:46:30.342Z,53.30
2019-03-08T12:49:19.836Z,53.30
2019-03-08T12:51:58.657Z,53.40
2019-03-08T12:54:48.416Z,53.30
2019-03-08T12:57:37.876Z,53.30
2019-03-08T13:00:30.046Z,53.30
2019-03-08T13:03:20.090Z,53.30
2019-03-08T13:06:09.632Z,53.60
2019-03-08T13:08:45.211Z,53.60
2019-03-08T13:11:15.758Z,53.60
2019-03-08T13:13:46.267Z,54.10
2019-03-08T13:16:16.752Z,54.00
2019-03-08T13:18:47.859Z,54.40
2019-03-08T13:21:18.337Z,54.60
2019-03-08T13:23:48.809Z,54.30
2019-03-08T13:26:20.465Z,54.40
2019-03-08T13:28:50.852Z,53.70
2019-03-08T13:31:21.403Z,52.90
2019-03-08T13:33:53.161Z,52.80
2019-03-08T13:36:24.100Z,52.80
2019-03-08T13:38:54.648Z,52.50
2019-03-08T13:41:25.365Z,51.80
2019-03-08T13:44:59.753Z,51.60
2019-03-08T13:53:14.537Z,52.10
2019-03-08T13:55:46.467Z,53.50
2019-03-08T13:58:17.057Z,54.10
2019-03-08T14:00:47.997Z,54.20
2019-03-08T14:03:18.813Z,54.80
2019-03-08T14:05:49.282Z,55.00
2019-03-08T14:08:21.850Z,55.20
2019-03-08T14:10:52.382Z,55.50
2019-03-08T14:13:23.802Z,55.30
2019-03-08T14:15:56.277Z,55.50
2019-03-08T14:18:26.892Z,55.90
2019-03-08T14:20:58.686Z,55.60
2019-03-08T14:23:29.210Z,55.40
2019-03-08T14:26:08.877Z,55.50
2019-03-08T14:28:40.499Z,54.70
2019-03-08T14:31:19.575Z,55.00
2019-03-08T14:33:50.076Z,55.10
2019-03-08T14:36:20.668Z,56.30
2019-03-08T14:38:51.147Z,55.90
2019-03-08T14:41:32.135Z,56.20
2019-03-08T14:44:08.437Z,56.10
2019-03-08T14:46:57.884Z,55.90
2019-03-08T14:49:39.530Z,55.60
2019-03-08T14:52:03.317Z,54.70
2019-03-08T14:54:33.845Z,54.40
2019-03-08T14:57:04.517Z,54.30
2019-03-08T14:59:35.046Z,54.50
2019-03-08T15:02:05.732Z,54.50
2019-03-08T15:04:36.683Z,54.60
2019-03-08T15:07:09.653Z,56.00
2019-03-08T15:09:40.334Z,55.50
2019-03-08T15:12:16.604Z,55.70
2019-03-08T15:14:43.345Z,56.30
2019-03-08T15:17:16.824Z,56.30
2019-03-08T15:19:46.303Z,56.70
2019-03-08T15:22:17.025Z,56.80
2019-03-08T15:24:47.614Z,56.90
2019-03-08T15:27:18.400Z,57.10
2019-03-08T15:29:54.564Z,56.80
2019-03-08T15:32:21.213Z,56.30
2019-03-08T15:34:51.742Z,56.20
2019-03-08T15:37:22.498Z,56.50
2019-03-08T15:39:53.454Z,57.30
2019-03-08T15:42:24.155Z,57.20
2019-03-08T15:44:54.969Z,57.70
2019-03-08T15:47:25.656Z,58.10
2019-03-08T15:49:57.474Z,58.50
2019-03-08T15:52:28.154Z,58.60
2019-03-08T15:54:58.880Z,58.90
2019-03-08T15:57:29.577Z,59.30
2019-03-08T16:00:00.362Z,59.50
2019-03-08T16:02:31.598Z,59.50
2019-03-08T16:05:03.886Z,59.90
2019-03-08T16:07:34.792Z,60.70
2019-03-08T16:10:06.159Z,61.10
2019-03-08T16:12:37.153Z,61.00
2019-03-08T16:15:08.172Z,60.90
2019-03-08T16:17:39.038Z,60.70
2019-03-08T16:20:11.792Z,61.10
2019-03-08T16:22:42.988Z,61.10
2019-03-08T16:25:14.563Z,61.80
2019-03-08T16:27:46.465Z,64.40
2019-03-08T16:30:22.060Z,72.00
2019-03-08T16:33:05.968Z,73.90
2019-03-08T16:35:43.335Z,77.40
2019-03-08T16:38:31.206Z,78.60
2019-03-08T16:41:10.053Z,79.70
2019-03-08T16:43:59.611Z,80.30
2019-03-08T16:46:49.333Z,79.90
2019-03-08T16:49:25.934Z,79.90
2019-03-08T16:52:15.662Z,79.60
2019-03-08T16:55:05.196Z,78.30
2019-03-08T16:57:53.863Z,77.70
2019-03-08T17:00:43.842Z,78.00
2019-03-08T17:03:25.720Z,77.10
2019-03-08T17:06:15.609Z,77.10
2019-03-08T17:09:02.617Z,76.80
2019-03-08T17:11:47.576Z,77.30
2019-03-08T17:14:37.431Z,77.10
2019-03-08T17:17:23.857Z,78.60
2019-03-08T17:20:08.603Z,78.10
2019-03-08T17:22:58.525Z,79.30
2019-03-08T17:25:48.244Z,80.20
2019-03-08T17:28:37.945Z,81.50
2019-03-08T17:31:27.543Z,81.10
2019-03-08T17:34:15.193Z,81.70
2019-03-08T17:36:58.412Z,81.80
2019-03-08T17:39:48.075Z,81.60
2019-03-08T17:42:36.806Z,81.40
2019-03-08T17:45:23.273Z,81.30
2019-03-08T17:48:13.112Z,81.40
2019-03-08T17:51:02.931Z,81.70
2019-03-08T17:53:53.082Z,81.90
2019-03-08T17:56:41.333Z,82.50
2019-03-08T17:59:19.409Z,83.10
2019-03-08T18:02:09.354Z,83.70
2019-03-08T18:04:59.037Z,84.10
2019-03-08T18:07:39.077Z,84.20
2019-03-08T18:10:29.117Z,84.60
2019-03-08T18:13:09.453Z,84.70
2019-03-08T18:15:52.554Z,84.40
2019-03-08T18:18:43.218Z,84.80
2019-03-08T18:21:31.254Z,85.50
2019-03-08T18:24:23.641Z,86.00
2019-03-08T18:27:08.515Z,86.70
2019-03-08T18:29:48.055Z,87.10
2019-03-08T18:32:37.853Z,87.50
2019-03-08T18:35:21.232Z,88.10
2019-03-08T18:37:59.562Z,88.50
2019-03-08T18:40:38.883Z,88.80
2019-03-08T18:43:40.663Z,89.00
2019-03-08T18:46:21.715Z,90.00
2019-03-08T18:49:01.802Z,90.00
2019-03-08T18:51:46.772Z,90.10
2019-03-08T18:54:31.327Z,90.20
2019-03-08T18:57:21.270Z,90.30
2019-03-08T19:00:11.255Z,90.70
2019-03-08T19:02:51.420Z,90.30
2019-03-08T19:05:41.201Z,90.40
2019-03-08T19:08:20.852Z,90.40
2019-03-08T19:11:00.494Z,90.50
2019-03-08T19:13:37.531Z,90.50
2019-03-08T19:16:20.247Z,90.70
2019-03-08T19:19:10.279Z,90.80
2019-03-08T19:21:50.443Z,90.90
2019-03-08T19:24:40.086Z,90.90
2019-03-08T19:27:29.814Z,91.10
2019-03-08T19:30:13.924Z,91.20
2019-03-08T19:32:58.574Z,91.40
2019-03-08T19:35:39.865Z,91.60
2019-03-08T19:38:29.778Z,91.80
2019-03-08T19:41:14.894Z,91.90
2019-03-08T19:44:04.771Z,92.00
2019-03-08T19:46:42.191Z,92.20
2019-03-08T19:49:31.974Z,92.60
2019-03-08T19:52:21.786Z,92.80
2019-03-08T19:54:56.158Z,92.60
2019-03-08T19:57:37.988Z,92.60
2019-03-08T20:00:28.801Z,92.70
2019-03-08T20:03:17.417Z,92.80
2019-03-08T20:06:00.692Z,92.90
2019-03-08T20:08:51.546Z,93.00
2019-03-08T20:11:41.320Z,93.00
2019-03-08T20:14:31.621Z,93.10
2019-03-08T20:17:23.301Z,93.20
2019-03-08T20:20:12.951Z,93.10
2019-03-08T20:22:55.805Z,93.20
2019-03-08T20:25:34.175Z,92.90
2019-03-08T20:28:12.054Z,93.00
2019-03-08T20:31:01.873Z,93.20
2019-03-08T20:33:42.001Z,93.30
2019-03-08T20:36:34.532Z,93.20
2019-03-08T20:39:26.153Z,93.20
2019-03-08T20:42:01.711Z,93.40
2019-03-08T20:44:47.791Z,93.20
2019-03-08T20:47:22.046Z,93.20
2019-03-08T20:49:55.288Z,93.10
2019-03-08T20:52:26.051Z,93.00
2019-03-08T20:54:56.869Z,93.00
2019-03-08T20:57:27.573Z,92.90
2019-03-08T20:59:58.144Z,92.90
2019-03-08T21:02:28.659Z,93.00
2019-03-08T21:04:59.396Z,93.10
2019-03-08T21:07:29.893Z,93.20
2019-03-08T21:10:01.082Z,93.20
2019-03-08T21:12:32.973Z,93.20
2019-03-08T21:15:04.097Z,93.20
2019-03-08T21:17:34.864Z,93.30
2019-03-08T21:20:06.409Z,93.20
2019-03-08T21:22:37.112Z,93.10
2019-03-08T21:25:09.087Z,93.00
2019-03-08T21:27:40.920Z,93.00
2019-03-08T21:30:14.853Z,92.90
2019-03-08T21:32:48.015Z,93.00
2019-03-08T21:35:18.719Z,93.10
2019-03-08T21:37:49.639Z,93.20
2019-03-08T21:40:20.283Z,93.30
2019-03-08T21:42:50.854Z,93.40
2019-03-08T21:45:21.513Z,93.80
2019-03-08T21:47:52.188Z,93.60
2019-03-08T21:50:23.269Z,93.80
2019-03-08T21:52:53.913Z,93.90
2019-03-08T21:55:24.642Z,94.30
2019-03-08T21:57:55.262Z,94.40
2019-03-08T22:00:26.519Z,94.40
2019-03-08T22:02:57.008Z,94.50
2019-03-08T22:05:30.763Z,94.60
2019-03-08T22:08:01.174Z,94.60
2019-03-08T22:10:41.127Z,94.60
2019-03-08T22:13:11.740Z,94.60
2019-03-08T22:15:42.384Z,95.20
2019-03-08T22:18:14.095Z,95.00
2019-03-08T22:20:46.918Z,95.10
2019-03-08T22:23:17.518Z,95.20
2019-03-08T22:25:47.973Z,95.30
2019-03-08T22:28:18.612Z,95.50
2019-03-08T22:30:49.123Z,95.80
2019-03-08T22:33:19.779Z,95.90
2019-03-08T22:35:50.386Z,96.20
2019-03-08T22:38:21.019Z,96.30
2019-03-08T22:40:54.492Z,96.50
2019-03-08T22:43:24.939Z,96.50
2019-03-08T22:45:55.485Z,96.50
2019-03-08T22:48:25.964Z,96.60
2019-03-08T22:50:56.387Z,96.50
2019-03-08T22:53:26.969Z,96.50
2019-03-08T22:55:57.404Z,96.60
2019-03-08T22:58:27.952Z,96.60
2019-03-08T23:01:07.353Z,96.60
2019-03-08T23:03:39.633Z,96.70
2019-03-08T23:06:11.383Z,96.90
2019-03-08T23:08:41.930Z,97.00
2019-03-08T23:11:12.639Z,96.90
2019-03-08T23:13:43.390Z,97.20
2019-03-08T23:16:14.010Z,97.30
2019-03-08T23:18:47.967Z,97.40
2019-03-08T23:21:18.647Z,97.20
2019-03-08T23:23:49.291Z,97.20
2019-03-08T23:26:19.875Z,96.90
2019-03-08T23:29:05.178Z,97.00
2019-03-08T23:31:39.481Z,97.10
2019-03-08T23:34:09.935Z,97.20
2019-03-08T23:36:40.663Z,97.10
2019-03-08T23:39:11.263Z,97.00
2019-03-08T23:41:42.975Z,97.10
2019-03-08T23:44:13.446Z,97.20
2019-03-08T23:46:44.004Z,97.40
2019-03-08T23:49:14.508Z,97.60
2019-03-08T23:51:44.902Z,97.60
2019-03-08T23:54:15.501Z,97.90
2019-03-08T23:56:45.952Z,98.10
2019-03-08T23:59:16.659Z,98.20
